Bloomingburg, Ohio
Current Conditions -  °F | °C
As of 6:15 AM on Friday 24 Oct 2014 (Local Time) from KUYF Reporting Station
Clear Clear  
Wind Chill: 36°   Ceiling: Unl
Heat Index: 39°   Visibility: 7mi
Dew Point: 37°   Wind: 5mph
Humidity: 93%   Direction: 200°SSW
Pressure: 30.11"   Gusts: NA
Location:  39.61°N, 83.4°W
Report Text: KUYF 241015Z AUTO 20004KT 7SM CLR 04/03 A3011 RMK AO2
Loading
Personal Weather Stations






























Interactive Weather Map
Tropical Storm Tracking
New forecast layout! Learn more

10-Day Weather Forecast

Advertisements
Track Severe Weather on mobile